Weather at Ronald Reagan Washington National Airport

Public forecast

Using degrees Fahrenheit for public forecast. Weather courtesy of forecast.io.

Current aviation weather report (METAR) for Ronald Reagan Washington National Airport

Retrieved 2020/10/30 23:52 UTC (1 hour ago):

KDCA 302352Z 33005KT 10SM BKN040 OVC060 11/04 A3020 RMK AO2 RAB22E43 SLP228 P0000 60000 T01110044 10128 20100 53037

Aviation forecast (TAF) for Ronald Reagan Washington National Airport

Retrieved 2020-10-31 00:42 UTC (17 minutes ago):

TAF KDCA 302340Z 3100/0106 33008KT P6SM FEW050 BKN060 FM310500 34005KT P6SM FEW050 FM311300 04004KT P6SM FEW250 FM311900 12004KT P6SM FEW250 FM010300 14004KT P6SM SCT120